createdAt,value
2017-11-27T00:00:28.039Z,6.71
2017-11-27T00:01:27.952Z,6.71
2017-11-27T00:02:27.861Z,6.68
2017-11-27T00:03:27.777Z,6.58
2017-11-27T00:04:27.682Z,6.61
2017-11-27T00:05:27.595Z,6.77
2017-11-27T00:06:27.500Z,6.81
2017-11-27T00:07:27.417Z,6.69
2017-11-27T00:08:27.336Z,6.84
2017-11-27T00:09:27.248Z,6.77
2017-11-27T00:10:27.170Z,6.76
2017-11-27T00:11:27.057Z,6.71
2017-11-27T00:12:27.000Z,6.81
2017-11-27T00:13:26.922Z,6.84
2017-11-27T00:14:26.821Z,6.83
2017-11-27T00:15:26.708Z,6.62
2017-11-27T00:16:26.636Z,6.63
2017-11-27T00:17:26.534Z,6.54
2017-11-27T00:18:26.467Z,6.46
2017-11-27T00:19:26.360Z,6.53
2017-11-27T00:20:26.296Z,6.66
2017-11-27T00:21:26.196Z,6.68
2017-11-27T00:22:26.115Z,6.62
2017-11-27T00:23:26.667Z,6.46
2017-11-27T00:24:25.913Z,6.65
2017-11-27T00:25:25.823Z,6.66
2017-11-27T00:26:25.727Z,6.81
2017-11-27T00:27:25.649Z,6.87
2017-11-27T00:28:25.569Z,6.80
2017-11-27T00:29:25.470Z,6.79
2017-11-27T00:30:25.370Z,6.63
2017-11-27T00:31:25.298Z,6.66
2017-11-27T00:32:25.205Z,6.77
2017-11-27T00:33:25.110Z,6.91
2017-11-27T00:34:25.027Z,6.71
2017-11-27T00:35:24.934Z,6.79
2017-11-27T00:36:24.836Z,6.66
2017-11-27T00:37:24.766Z,6.79
2017-11-27T00:38:24.671Z,6.81
2017-11-27T00:39:24.583Z,6.84
2017-11-27T00:40:24.495Z,6.71
2017-11-27T00:41:24.402Z,6.62
2017-11-27T00:42:24.310Z,6.56
2017-11-27T00:43:24.300Z,6.72
2017-11-27T00:44:24.132Z,6.73
2017-11-27T00:45:24.049Z,6.65
2017-11-27T00:46:23.966Z,6.69
2017-11-27T00:47:23.867Z,6.61
2017-11-27T00:48:23.776Z,6.58
2017-11-27T00:49:23.686Z,6.63
2017-11-27T00:50:23.600Z,6.51
2017-11-27T00:51:23.506Z,6.36
2017-11-27T00:52:23.424Z,6.44
2017-11-27T00:53:23.332Z,6.61
2017-11-27T00:54:23.260Z,6.58
2017-11-27T00:55:23.171Z,6.53
2017-11-27T00:56:23.072Z,6.59
2017-11-27T00:57:22.977Z,6.61
2017-11-27T00:58:22.901Z,6.58
2017-11-27T00:59:22.794Z,6.43
2017-11-27T01:00:22.704Z,6.41
2017-11-27T01:01:22.622Z,6.46
2017-11-27T01:02:22.526Z,6.33
2017-11-27T01:03:22.436Z,6.11
2017-11-27T01:04:22.345Z,6.14
2017-11-27T01:05:22.260Z,6.36
2017-11-27T01:06:22.170Z,6.38
2017-11-27T01:07:22.086Z,6.47
2017-11-27T01:08:21.993Z,6.44
2017-11-27T01:09:21.928Z,6.33
2017-11-27T01:10:21.809Z,6.18
2017-11-27T01:11:21.724Z,6.32
2017-11-27T01:12:21.631Z,6.26
2017-11-27T01:13:21.543Z,6.30
2017-11-27T01:14:21.453Z,6.40
2017-11-27T01:15:21.365Z,6.38
2017-11-27T01:16:21.274Z,6.51
2017-11-27T01:17:21.190Z,6.32
2017-11-27T01:18:21.095Z,6.32
2017-11-27T01:19:21.008Z,6.21
2017-11-27T01:20:20.918Z,6.43
2017-11-27T01:21:20.830Z,6.35
2017-11-27T01:22:21.236Z,6.19
2017-11-27T01:23:20.667Z,6.36
2017-11-27T01:24:20.570Z,6.09
2017-11-27T01:25:20.475Z,6.06
2017-11-27T01:26:20.380Z,6.13
2017-11-27T01:27:20.290Z,6.01
2017-11-27T01:28:20.199Z,6.11
2017-11-27T01:29:20.110Z,6.19
2017-11-27T01:30:20.034Z,6.09
2017-11-27T01:31:19.931Z,6.18
2017-11-27T01:32:19.838Z,6.28
2017-11-27T01:33:19.756Z,6.41
2017-11-27T01:34:19.664Z,6.38
2017-11-27T01:35:19.572Z,6.14
2017-11-27T01:36:19.481Z,6.25
2017-11-27T01:37:19.401Z,6.28
2017-11-27T01:38:19.303Z,6.21
2017-11-27T01:39:19.212Z,6.18
2017-11-27T01:40:19.127Z,6.25
2017-11-27T01:41:19.038Z,6.16
2017-11-27T01:42:18.948Z,6.32
2017-11-27T01:43:18.855Z,6.19
2017-11-27T01:44:18.765Z,6.01
2017-11-27T01:45:18.683Z,6.04
2017-11-27T01:46:18.592Z,6.18
2017-11-27T01:47:18.501Z,6.11
2017-11-27T01:48:18.415Z,6.11
2017-11-27T01:49:18.321Z,6.16
2017-11-27T01:50:18.230Z,6.25
2017-11-27T01:51:18.139Z,6.26
2017-11-27T01:52:18.050Z,6.14
2017-11-27T01:53:17.963Z,6.09
2017-11-27T01:54:17.878Z,5.96
2017-11-27T01:55:17.786Z,6.04
2017-11-27T01:56:17.694Z,6.19
2017-11-27T01:57:17.606Z,6.18
2017-11-27T01:58:17.511Z,5.88
2017-11-27T01:59:17.426Z,5.66
2017-11-27T02:00:17.333Z,5.85
2017-11-27T02:01:17.244Z,5.91
2017-11-27T02:02:17.158Z,6.04
2017-11-27T02:03:17.069Z,5.96
2017-11-27T02:04:16.974Z,6.10
2017-11-27T02:05:16.909Z,6.18
2017-11-27T02:06:16.801Z,5.92
2017-11-27T02:07:16.705Z,5.73
2017-11-27T02:08:16.622Z,5.89
2017-11-27T02:09:16.526Z,5.89
2017-11-27T02:10:16.431Z,5.91
2017-11-27T02:11:16.344Z,6.00
2017-11-27T02:12:16.271Z,6.19
2017-11-27T02:13:16.168Z,6.09
2017-11-27T02:14:16.080Z,6.13
2017-11-27T02:15:15.987Z,6.18
2017-11-27T02:16:15.900Z,6.22
2017-11-27T02:17:15.833Z,6.01
2017-11-27T02:18:15.749Z,5.92
2017-11-27T02:19:15.636Z,5.91
2017-11-27T02:20:15.541Z,5.93
2017-11-27T02:21:15.829Z,6.06
2017-11-27T02:22:15.368Z,5.92
2017-11-27T02:23:15.273Z,5.93
2017-11-27T02:24:15.182Z,5.95
2017-11-27T02:25:15.094Z,5.92
2017-11-27T02:26:15.002Z,5.95
2017-11-27T02:27:14.913Z,5.91
2017-11-27T02:28:14.828Z,5.71
2017-11-27T02:29:14.737Z,5.82
2017-11-27T02:30:14.648Z,5.88
2017-11-27T02:31:14.555Z,5.95
2017-11-27T02:32:14.470Z,5.98
2017-11-27T02:33:14.376Z,5.95
2017-11-27T02:34:14.288Z,5.92
2017-11-27T02:35:14.199Z,5.86
2017-11-27T02:36:14.107Z,5.93
2017-11-27T02:37:14.031Z,5.95
2017-11-27T02:38:13.929Z,6.04
2017-11-27T02:39:13.835Z,5.74
2017-11-27T02:40:13.753Z,5.91
2017-11-27T02:41:13.668Z,5.98
2017-11-27T02:42:13.569Z,5.70
2017-11-27T02:43:13.468Z,5.91
2017-11-27T02:44:13.395Z,5.83
2017-11-27T02:45:13.299Z,5.91
2017-11-27T02:46:13.213Z,5.93
2017-11-27T02:47:13.124Z,6.09
2017-11-27T02:48:13.027Z,6.06
2017-11-27T02:49:12.938Z,6.16
2017-11-27T02:50:12.849Z,5.83
2017-11-27T02:51:12.775Z,5.73
2017-11-27T02:52:12.668Z,5.92
2017-11-27T02:53:12.577Z,5.95
2017-11-27T02:54:12.488Z,6.01
2017-11-27T02:55:12.397Z,6.03
2017-11-27T02:56:12.310Z,6.16
2017-11-27T02:57:12.220Z,5.86
2017-11-27T02:58:12.136Z,5.91
2017-11-27T02:59:12.046Z,5.89
2017-11-27T03:00:11.951Z,6.00
2017-11-27T03:01:11.858Z,6.11
2017-11-27T03:02:11.779Z,6.16
2017-11-27T03:03:11.911Z,6.30
2017-11-27T03:04:11.597Z,6.26
2017-11-27T03:05:11.501Z,6.16
2017-11-27T03:06:11.419Z,6.09
2017-11-27T03:07:11.331Z,6.14
2017-11-27T03:08:11.234Z,6.14
2017-11-27T03:09:11.147Z,6.03
2017-11-27T03:10:11.064Z,6.06
2017-11-27T03:11:10.976Z,6.11
2017-11-27T03:12:10.879Z,6.11
2017-11-27T03:13:10.800Z,6.01
2017-11-27T03:14:10.701Z,5.95
2017-11-27T03:15:10.612Z,6.07
2017-11-27T03:16:10.523Z,6.09
2017-11-27T03:17:10.442Z,5.96
2017-11-27T03:18:10.346Z,5.92
2017-11-27T03:19:10.256Z,6.13
2017-11-27T03:20:10.425Z,6.09
2017-11-27T03:21:10.078Z,6.14
2017-11-27T03:22:09.986Z,6.10
2017-11-27T03:23:09.900Z,6.14
2017-11-27T03:24:09.816Z,6.19
2017-11-27T03:25:09.733Z,6.09
2017-11-27T03:26:09.635Z,6.06
2017-11-27T03:27:09.570Z,6.01
2017-11-27T03:28:09.455Z,5.91
2017-11-27T03:29:09.369Z,5.91
2017-11-27T03:30:09.276Z,5.92
2017-11-27T03:31:09.213Z,6.03
2017-11-27T03:32:09.107Z,6.11
2017-11-27T03:33:09.015Z,6.25
2017-11-27T03:34:08.929Z,6.21
2017-11-27T03:35:08.830Z,6.13
2017-11-27T03:36:08.742Z,5.98
2017-11-27T03:37:08.653Z,6.01
2017-11-27T03:38:08.564Z,6.04
2017-11-27T03:39:08.471Z,6.13
2017-11-27T03:40:08.382Z,6.00
2017-11-27T03:41:08.296Z,6.13
2017-11-27T03:42:08.201Z,6.13
2017-11-27T03:43:08.113Z,5.96
2017-11-27T03:44:08.032Z,5.89
2017-11-27T03:45:07.938Z,5.89
2017-11-27T03:46:07.842Z,5.95
2017-11-27T03:47:07.757Z,5.89
2017-11-27T03:48:07.669Z,6.04
2017-11-27T03:49:07.579Z,6.18
2017-11-27T03:50:07.495Z,6.10
2017-11-27T03:51:07.419Z,6.00
2017-11-27T03:52:07.304Z,5.96
2017-11-27T03:53:07.225Z,5.96
2017-11-27T03:54:07.134Z,6.07
2017-11-27T03:55:07.043Z,6.10
2017-11-27T03:56:06.955Z,6.19
2017-11-27T03:57:07.018Z,6.00
2017-11-27T03:58:06.778Z,6.10
2017-11-27T03:59:06.686Z,6.06
2017-11-27T04:00:06.595Z,6.01
2017-11-27T04:01:06.514Z,6.10
2017-11-27T04:02:06.498Z,6.07
2017-11-27T04:03:06.333Z,6.01
2017-11-27T04:04:06.249Z,5.89
2017-11-27T04:05:06.154Z,5.95
2017-11-27T04:06:06.055Z,6.01
2017-11-27T04:07:05.976Z,5.89
2017-11-27T04:08:05.877Z,5.93
2017-11-27T04:09:05.785Z,6.00
2017-11-27T04:10:05.706Z,6.03
2017-11-27T04:11:05.611Z,5.98
2017-11-27T04:12:05.517Z,5.91
2017-11-27T04:13:05.429Z,5.85
2017-11-27T04:14:05.335Z,5.74
2017-11-27T04:15:05.248Z,5.75
2017-11-27T04:16:05.160Z,5.78
2017-11-27T04:17:05.080Z,5.78
2017-11-27T04:18:04.981Z,5.66
2017-11-27T04:19:05.003Z,5.83
2017-11-27T04:20:04.794Z,5.92
2017-11-27T04:21:04.728Z,5.78
2017-11-27T04:22:04.629Z,5.82
2017-11-27T04:23:04.528Z,5.88
2017-11-27T04:24:04.442Z,6.00
2017-11-27T04:25:04.350Z,6.03
2017-11-27T04:26:04.257Z,6.00
2017-11-27T04:27:04.169Z,6.01
2017-11-27T04:28:04.084Z,5.73
2017-11-27T04:29:04.014Z,5.63
2017-11-27T04:30:03.903Z,5.22
2017-11-27T04:31:03.811Z,5.38
2017-11-27T04:32:03.719Z,5.68
2017-11-27T04:33:03.623Z,5.74
2017-11-27T04:34:03.543Z,5.86
2017-11-27T04:35:03.456Z,5.91
2017-11-27T04:36:03.357Z,5.85
2017-11-27T04:37:03.270Z,5.81
2017-11-27T04:38:03.183Z,5.75
2017-11-27T04:39:03.089Z,5.77
2017-11-27T04:40:03.013Z,5.83
2017-11-27T04:41:02.926Z,5.91
2017-11-27T04:42:02.830Z,5.64
2017-11-27T04:43:02.733Z,5.75
2017-11-27T04:44:02.641Z,5.83
2017-11-27T04:45:02.553Z,5.92
2017-11-27T04:46:02.460Z,5.53
2017-11-27T04:47:02.376Z,5.74
2017-11-27T04:48:02.284Z,5.83
2017-11-27T04:49:02.191Z,5.86
2017-11-27T04:50:02.106Z,5.75
2017-11-27T04:51:02.014Z,5.75
2017-11-27T04:52:01.921Z,5.77
2017-11-27T04:53:01.849Z,5.78
2017-11-27T04:54:01.744Z,5.82
2017-11-27T04:55:01.667Z,5.82
2017-11-27T04:56:01.562Z,5.71
2017-11-27T04:57:01.485Z,5.53
2017-11-27T04:58:01.384Z,5.75
2017-11-27T04:59:01.293Z,5.86
2017-11-27T05:00:01.197Z,5.92
2017-11-27T05:01:01.111Z,5.91
2017-11-27T05:02:01.027Z,5.86
2017-11-27T05:03:00.931Z,5.88
2017-11-27T05:04:00.837Z,5.83
2017-11-27T05:05:00.756Z,5.73
2017-11-27T05:06:00.664Z,5.77
2017-11-27T05:07:00.586Z,5.91
2017-11-27T05:08:00.485Z,5.78
2017-11-27T05:09:00.393Z,5.64
2017-11-27T05:10:00.308Z,5.73
2017-11-27T05:11:00.230Z,5.63
2017-11-27T05:12:00.128Z,5.32
2017-11-27T05:13:00.043Z,5.34
2017-11-27T05:13:59.942Z,5.37
2017-11-27T05:14:59.854Z,5.50
2017-11-27T05:15:59.767Z,5.37
2017-11-27T05:16:59.678Z,5.45
2017-11-27T05:17:59.598Z,5.64
2017-11-27T05:18:59.494Z,5.74
2017-11-27T05:19:59.406Z,5.57
2017-11-27T05:20:59.315Z,5.19
2017-11-27T05:21:59.226Z,5.38
2017-11-27T05:22:59.133Z,5.41
2017-11-27T05:23:59.047Z,5.56
2017-11-27T05:24:58.958Z,5.64
2017-11-27T05:25:58.870Z,5.49
2017-11-27T05:26:58.774Z,5.32
2017-11-27T05:27:58.693Z,5.56
2017-11-27T05:28:58.595Z,5.50
2017-11-27T05:29:58.507Z,5.63
2017-11-27T05:30:58.419Z,5.59
2017-11-27T05:31:58.329Z,5.49
2017-11-27T05:32:58.236Z,5.31
2017-11-27T05:33:58.144Z,5.35
2017-11-27T05:34:58.064Z,5.56
2017-11-27T05:35:57.976Z,5.64
2017-11-27T05:36:57.879Z,5.75
2017-11-27T05:37:57.791Z,5.78
2017-11-27T05:38:57.696Z,5.77
2017-11-27T05:39:57.616Z,5.73
2017-11-27T05:40:57.524Z,5.63
2017-11-27T05:41:57.435Z,5.75
2017-11-27T05:42:57.343Z,5.83
2017-11-27T05:43:57.256Z,5.91
2017-11-27T05:44:57.161Z,5.78
2017-11-27T05:45:57.076Z,5.86
2017-11-27T05:46:56.981Z,5.86
2017-11-27T05:47:57.894Z,5.82
2017-11-27T05:48:56.806Z,5.91
2017-11-27T05:49:56.717Z,5.83
2017-11-27T05:50:56.641Z,5.88
2017-11-27T05:51:56.544Z,5.96
2017-11-27T05:52:56.455Z,5.70
2017-11-27T05:53:56.363Z,5.57
2017-11-27T05:54:56.279Z,5.77
2017-11-27T05:55:56.187Z,5.88
2017-11-27T05:56:56.096Z,5.77
2017-11-27T05:57:56.018Z,5.66
2017-11-27T05:58:55.934Z,5.70
2017-11-27T05:59:55.834Z,5.82
2017-11-27T06:00:55.739Z,5.85
2017-11-27T06:01:55.653Z,5.75
2017-11-27T06:02:55.575Z,5.75
2017-11-27T06:03:55.483Z,5.57
2017-11-27T06:04:55.379Z,5.71
2017-11-27T06:05:55.288Z,5.71
2017-11-27T06:06:55.203Z,5.83
2017-11-27T06:07:55.116Z,5.70
2017-11-27T06:08:55.030Z,5.78
2017-11-27T06:09:54.935Z,5.88
2017-11-27T06:10:54.845Z,5.82
2017-11-27T06:11:54.755Z,5.89
2017-11-27T06:12:54.664Z,5.74
2017-11-27T06:13:54.573Z,5.78
2017-11-27T06:14:54.488Z,5.85
2017-11-27T06:15:54.397Z,5.74
2017-11-27T06:16:54.320Z,5.81
2017-11-27T06:17:54.215Z,5.71
2017-11-27T06:18:54.133Z,5.57
2017-11-27T06:19:54.034Z,5.74
2017-11-27T06:20:53.957Z,5.82
2017-11-27T06:21:53.859Z,5.66
2017-11-27T06:22:53.766Z,5.57
2017-11-27T06:23:53.675Z,5.74
2017-11-27T06:24:53.591Z,5.63
2017-11-27T06:25:53.494Z,5.45
2017-11-27T06:26:53.416Z,5.45
2017-11-27T06:27:53.322Z,5.59
2017-11-27T06:28:53.262Z,5.64
2017-11-27T06:29:53.138Z,5.66
2017-11-27T06:30:53.050Z,5.63
2017-11-27T06:31:52.973Z,5.74
2017-11-27T06:32:52.873Z,5.71
2017-11-27T06:33:52.782Z,5.78
2017-11-27T06:34:52.694Z,5.63
2017-11-27T06:35:52.620Z,5.55
2017-11-27T06:36:52.519Z,5.67
2017-11-27T06:37:52.414Z,5.74
2017-11-27T06:38:52.342Z,5.70
2017-11-27T06:39:52.242Z,5.81
2017-11-27T06:40:52.149Z,5.89
2017-11-27T06:41:52.059Z,5.89
2017-11-27T06:42:51.971Z,5.77
2017-11-27T06:43:51.877Z,5.75
2017-11-27T06:44:51.784Z,5.78
2017-11-27T06:45:51.704Z,5.89
2017-11-27T06:46:52.439Z,5.85
2017-11-27T06:47:51.522Z,5.81
2017-11-27T06:48:51.429Z,5.71
2017-11-27T06:49:51.345Z,5.74
2017-11-27T06:50:51.250Z,5.83
2017-11-27T06:51:51.163Z,5.59
2017-11-27T06:52:51.075Z,5.60
2017-11-27T06:53:50.975Z,5.71
2017-11-27T06:54:50.886Z,5.66
2017-11-27T06:55:50.794Z,5.64
2017-11-27T06:56:50.708Z,5.53
2017-11-27T06:57:50.618Z,5.67
2017-11-27T06:58:50.521Z,5.63
2017-11-27T06:59:50.437Z,5.64
2017-11-27T07:00:50.352Z,5.71
2017-11-27T07:01:50.257Z,5.66
2017-11-27T07:02:50.165Z,5.70
2017-11-27T07:03:50.073Z,5.82
2017-11-27T07:04:49.979Z,5.88
2017-11-27T07:05:49.890Z,5.75
2017-11-27T07:06:49.802Z,5.82
2017-11-27T07:07:49.710Z,5.82
2017-11-27T07:08:49.627Z,5.73
2017-11-27T07:09:49.533Z,5.68
2017-11-27T07:10:49.436Z,5.74
2017-11-27T07:11:49.354Z,5.73
2017-11-27T07:12:49.265Z,5.77
2017-11-27T07:13:49.173Z,5.68
2017-11-27T07:14:49.082Z,5.86
2017-11-27T07:15:48.991Z,5.75
2017-11-27T07:16:48.901Z,5.78
2017-11-27T07:17:48.812Z,5.88
2017-11-27T07:18:48.722Z,5.92
2017-11-27T07:19:48.641Z,5.82
2017-11-27T07:20:48.535Z,5.81
2017-11-27T07:21:48.451Z,5.82
2017-11-27T07:22:48.361Z,5.88
2017-11-27T07:23:48.266Z,5.89
2017-11-27T07:24:48.175Z,5.89
2017-11-27T07:25:48.088Z,5.82
2017-11-27T07:26:48.008Z,5.73
2017-11-27T07:27:47.913Z,5.82
2017-11-27T07:28:47.831Z,5.73
2017-11-27T07:29:47.724Z,5.93
2017-11-27T07:30:47.634Z,5.70
2017-11-27T07:31:47.554Z,5.82
2017-11-27T07:32:47.461Z,5.92
2017-11-27T07:33:47.376Z,5.75
2017-11-27T07:34:47.278Z,5.86
2017-11-27T07:35:47.204Z,5.82
2017-11-27T07:36:47.101Z,5.96
2017-11-27T07:37:47.012Z,6.06
2017-11-27T07:38:46.915Z,5.98
2017-11-27T07:39:46.832Z,5.98
2017-11-27T07:40:46.735Z,5.83
2017-11-27T07:41:46.656Z,5.91
2017-11-27T07:42:46.557Z,5.83
2017-11-27T07:43:46.473Z,5.92
2017-11-27T07:44:46.385Z,5.89
2017-11-27T07:45:47.280Z,6.01
2017-11-27T07:46:46.213Z,6.11
2017-11-27T07:47:46.113Z,6.18
2017-11-27T07:48:46.014Z,6.25
2017-11-27T07:49:45.936Z,5.86
2017-11-27T07:50:45.842Z,6.14
2017-11-27T07:51:45.748Z,6.10
2017-11-27T07:52:45.660Z,6.21
2017-11-27T07:53:45.565Z,5.96
2017-11-27T07:54:45.484Z,6.35
2017-11-27T07:55:45.387Z,6.68
2017-11-27T07:56:45.311Z,6.80
2017-11-27T07:57:45.219Z,6.73
2017-11-27T07:58:45.128Z,6.86
2017-11-27T07:59:45.034Z,7.02
2017-11-27T08:00:44.947Z,7.20
2017-11-27T08:01:44.863Z,7.31
2017-11-27T08:02:44.771Z,7.56
2017-11-27T08:03:44.695Z,7.63
2017-11-27T08:04:44.597Z,8.04
2017-11-27T08:05:44.501Z,8.15
2017-11-27T08:06:44.408Z,8.17
2017-11-27T08:07:44.328Z,7.94
2017-11-27T08:08:44.238Z,8.12
2017-11-27T08:09:44.151Z,8.04
2017-11-27T08:10:44.062Z,8.12
2017-11-27T08:11:43.980Z,8.08
2017-11-27T08:12:43.893Z,8.12
2017-11-27T08:13:43.806Z,8.54
2017-11-27T08:14:43.714Z,8.63
2017-11-27T08:15:43.626Z,8.58
2017-11-27T08:16:43.549Z,8.54
2017-11-27T08:17:43.453Z,8.45
2017-11-27T08:18:43.365Z,8.36
2017-11-27T08:19:43.276Z,8.30
2017-11-27T08:20:43.196Z,8.30
2017-11-27T08:21:43.114Z,8.07
2017-11-27T08:22:43.050Z,8.15
2017-11-27T08:23:42.948Z,8.42
2017-11-27T08:24:42.860Z,8.68
2017-11-27T08:25:42.756Z,9.10
2017-11-27T08:26:42.679Z,9.58
2017-11-27T08:27:42.608Z,9.50
2017-11-27T08:28:42.498Z,9.71
2017-11-27T08:29:42.411Z,9.61
2017-11-27T08:30:42.324Z,9.63
2017-11-27T08:31:42.239Z,9.50
2017-11-27T08:32:42.154Z,9.46
2017-11-27T08:33:42.076Z,9.57
2017-11-27T08:34:42.002Z,9.85
2017-11-27T08:35:41.907Z,10.24
2017-11-27T08:36:41.812Z,10.55
2017-11-27T08:37:41.738Z,10.78
2017-11-27T08:38:41.648Z,10.98
2017-11-27T08:39:41.552Z,11.36
2017-11-27T08:40:41.475Z,11.78
2017-11-27T08:41:41.392Z,11.94
2017-11-27T08:42:41.304Z,12.11
2017-11-27T08:43:41.221Z,11.62
2017-11-27T08:44:41.855Z,11.96
2017-11-27T08:45:41.064Z,11.56
2017-11-27T08:46:40.970Z,12.15
2017-11-27T08:47:40.893Z,12.12
2017-11-27T08:48:40.803Z,12.30
2017-11-27T08:49:40.723Z,11.93
2017-11-27T08:50:40.640Z,12.09
2017-11-27T08:51:40.549Z,12.05
2017-11-27T08:52:40.472Z,12.29
2017-11-27T08:53:40.385Z,11.93
2017-11-27T08:54:40.302Z,11.87
2017-11-27T08:55:40.217Z,11.52
2017-11-27T08:56:40.130Z,11.13
2017-11-27T08:57:40.047Z,11.07
2017-11-27T08:58:39.968Z,10.53
2017-11-27T08:59:39.878Z,10.65
2017-11-27T09:00:39.804Z,10.24
2017-11-27T09:01:39.709Z,10.07
2017-11-27T09:02:39.621Z,9.82
2017-11-27T09:03:39.544Z,9.75
2017-11-27T09:04:39.464Z,9.43
2017-11-27T09:05:39.363Z,9.28
2017-11-27T09:06:39.277Z,9.40
2017-11-27T09:07:39.196Z,9.35
2017-11-27T09:08:39.107Z,9.45
2017-11-27T09:09:39.030Z,9.48
2017-11-27T09:10:38.928Z,9.45
2017-11-27T09:11:38.846Z,8.88
2017-11-27T09:12:38.756Z,8.83
2017-11-27T09:13:38.668Z,8.99
2017-11-27T09:14:38.584Z,9.01
2017-11-27T09:15:38.497Z,8.75
2017-11-27T09:16:38.422Z,8.68
2017-11-27T09:17:38.319Z,8.58
2017-11-27T09:18:38.232Z,8.79
2017-11-27T09:19:38.144Z,8.87
2017-11-27T09:20:38.057Z,8.65
2017-11-27T09:21:37.977Z,8.37
2017-11-27T09:22:37.883Z,8.58
2017-11-27T09:23:37.805Z,8.62
2017-11-27T09:24:37.715Z,8.60
2017-11-27T09:25:37.618Z,8.20
2017-11-27T09:26:37.535Z,8.04
2017-11-27T09:27:37.455Z,8.10
2017-11-27T09:28:37.358Z,8.21
2017-11-27T09:29:37.267Z,8.21
2017-11-27T09:30:37.186Z,8.17
2017-11-27T09:31:37.089Z,8.03
2017-11-27T09:32:37.012Z,7.94
2017-11-27T09:33:36.911Z,8.04
2017-11-27T09:34:36.823Z,8.02
2017-11-27T09:35:36.739Z,7.99
2017-11-27T09:36:36.657Z,8.03
2017-11-27T09:37:36.570Z,7.84
2017-11-27T09:38:36.466Z,7.82
2017-11-27T09:39:36.388Z,7.97
2017-11-27T09:40:36.294Z,7.96
2017-11-27T09:41:36.205Z,8.00
2017-11-27T09:42:36.126Z,7.93
2017-11-27T09:43:36.432Z,7.94
2017-11-27T09:44:35.945Z,7.99
2017-11-27T09:45:35.850Z,7.94
2017-11-27T09:46:35.769Z,8.14
2017-11-27T09:47:35.678Z,7.99
2017-11-27T09:48:35.585Z,7.99
2017-11-27T09:49:35.498Z,7.90
2017-11-27T09:50:35.407Z,8.08
2017-11-27T09:51:35.326Z,7.97
2017-11-27T09:52:35.231Z,8.00
2017-11-27T09:53:35.155Z,7.81
2017-11-27T09:54:35.055Z,7.82
2017-11-27T09:55:34.964Z,7.89
2017-11-27T09:56:34.888Z,7.85
2017-11-27T09:57:34.791Z,7.75
2017-11-27T09:58:34.717Z,7.82
2017-11-27T09:59:34.622Z,7.89
2017-11-27T10:00:34.522Z,7.79
2017-11-27T10:01:34.432Z,7.85
2017-11-27T10:02:34.340Z,7.92
2017-11-27T10:03:34.252Z,7.82
2017-11-27T10:04:34.166Z,7.90
2017-11-27T10:05:34.070Z,7.90
2017-11-27T10:06:33.992Z,7.71
2017-11-27T10:07:33.904Z,7.71
2017-11-27T10:08:33.805Z,7.77
2017-11-27T10:09:33.728Z,7.93
2017-11-27T10:10:33.632Z,8.00
2017-11-27T10:11:33.540Z,7.92
2017-11-27T10:12:33.450Z,7.89
2017-11-27T10:13:33.381Z,7.94
2017-11-27T10:14:33.284Z,8.02
2017-11-27T10:15:33.191Z,8.12
2017-11-27T10:16:33.107Z,7.99
2017-11-27T10:17:33.015Z,7.93
2017-11-27T10:18:32.936Z,7.99
2017-11-27T10:19:32.840Z,7.97
2017-11-27T10:20:32.745Z,8.15
2017-11-27T10:21:32.660Z,8.20
2017-11-27T10:22:32.565Z,7.94
2017-11-27T10:23:32.474Z,8.07
2017-11-27T10:24:32.386Z,7.97
2017-11-27T10:25:32.309Z,8.00
2017-11-27T10:26:32.209Z,8.15
2017-11-27T10:27:32.118Z,8.02
2017-11-27T10:28:32.037Z,8.11
2017-11-27T10:29:31.946Z,8.18
2017-11-27T10:30:31.868Z,8.18
2017-11-27T10:31:31.767Z,8.18
2017-11-27T10:32:31.674Z,8.18
2017-11-27T10:33:31.590Z,8.22
2017-11-27T10:34:31.509Z,8.15
2017-11-27T10:35:31.415Z,8.12
2017-11-27T10:36:31.337Z,8.18
2017-11-27T10:37:31.236Z,8.20
2017-11-27T10:38:31.143Z,8.17
2017-11-27T10:39:31.063Z,8.10
2017-11-27T10:40:30.965Z,8.15
2017-11-27T10:41:30.893Z,8.17
2017-11-27T10:42:31.021Z,8.25
2017-11-27T10:43:30.699Z,8.20
2017-11-27T10:44:30.617Z,8.28
2017-11-27T10:45:30.520Z,8.53
2017-11-27T10:46:30.429Z,8.29
2017-11-27T10:47:30.363Z,8.29
2017-11-27T10:48:30.261Z,8.30
2017-11-27T10:49:30.183Z,8.28
2017-11-27T10:50:30.085Z,8.50
2017-11-27T10:51:29.996Z,8.47
2017-11-27T10:52:29.904Z,8.69
2017-11-27T10:53:29.863Z,8.76
2017-11-27T10:54:29.730Z,8.83
2017-11-27T10:55:29.662Z,8.78
2017-11-27T10:56:29.556Z,8.73
2017-11-27T10:57:29.467Z,8.69
2017-11-27T10:58:29.379Z,8.78
2017-11-27T10:59:29.290Z,8.73
2017-11-27T11:00:29.216Z,8.60
2017-11-27T11:01:29.107Z,8.65
2017-11-27T11:02:29.030Z,8.71
2017-11-27T11:03:28.941Z,8.72
2017-11-27T11:04:28.849Z,8.55
2017-11-27T11:05:28.759Z,8.47
2017-11-27T11:06:28.673Z,8.51
2017-11-27T11:07:28.584Z,8.51
2017-11-27T11:08:28.503Z,8.47
2017-11-27T11:09:28.409Z,8.45
2017-11-27T11:10:28.325Z,8.48
2017-11-27T11:11:28.232Z,8.58
2017-11-27T11:12:28.134Z,8.51
2017-11-27T11:13:28.059Z,8.63
2017-11-27T11:14:27.968Z,8.57
2017-11-27T11:15:27.886Z,8.48
2017-11-27T11:16:27.807Z,8.53
2017-11-27T11:17:27.707Z,8.54
2017-11-27T11:18:27.612Z,8.48
2017-11-27T11:19:27.530Z,8.48
2017-11-27T11:20:27.431Z,8.37
2017-11-27T11:21:27.345Z,8.39
2017-11-27T11:22:27.254Z,8.37
2017-11-27T11:23:27.164Z,8.58
2017-11-27T11:24:27.075Z,8.50
2017-11-27T11:25:26.991Z,8.51
2017-11-27T11:26:26.902Z,8.37
2017-11-27T11:27:26.808Z,8.47
2017-11-27T11:28:26.726Z,8.48
2017-11-27T11:29:26.633Z,8.55
2017-11-27T11:30:26.550Z,8.45
2017-11-27T11:31:26.458Z,8.50
2017-11-27T11:32:26.365Z,8.54
2017-11-27T11:33:26.275Z,8.54
2017-11-27T11:34:26.191Z,8.55
2017-11-27T11:35:26.096Z,8.53
2017-11-27T11:36:26.015Z,8.50
2017-11-27T11:37:25.932Z,8.55
2017-11-27T11:38:25.830Z,8.25
2017-11-27T11:39:25.755Z,8.32
2017-11-27T11:40:25.661Z,8.28
2017-11-27T11:41:25.617Z,8.35
2017-11-27T11:42:25.477Z,8.30
2017-11-27T11:43:25.396Z,8.28
2017-11-27T11:44:25.301Z,8.45
2017-11-27T11:45:25.243Z,8.44
2017-11-27T11:46:25.137Z,8.53
2017-11-27T11:47:25.033Z,8.39
2017-11-27T11:48:24.957Z,8.32
2017-11-27T11:49:24.859Z,8.35
2017-11-27T11:50:24.767Z,8.39
2017-11-27T11:51:24.676Z,8.51
2017-11-27T11:52:24.593Z,8.42
2017-11-27T11:53:24.503Z,8.40
2017-11-27T11:54:24.409Z,8.48
2017-11-27T11:55:24.323Z,8.42
2017-11-27T11:56:24.233Z,8.51
2017-11-27T11:57:24.144Z,8.47
2017-11-27T11:58:24.059Z,8.51
2017-11-27T11:59:23.972Z,8.29
2017-11-27T12:00:23.885Z,8.35
2017-11-27T12:01:23.793Z,8.35
2017-11-27T12:02:23.702Z,8.37
2017-11-27T12:03:23.617Z,8.33
2017-11-27T12:04:23.527Z,8.36
2017-11-27T12:05:23.445Z,8.39
2017-11-27T12:06:23.343Z,8.29
2017-11-27T12:07:23.251Z,8.35
2017-11-27T12:08:23.184Z,8.36
2017-11-27T12:09:23.134Z,8.35
2017-11-27T12:10:22.997Z,8.42
2017-11-27T12:11:22.899Z,8.53
2017-11-27T12:12:22.818Z,8.40
2017-11-27T12:13:22.728Z,8.39
2017-11-27T12:14:22.638Z,8.42
2017-11-27T12:15:22.544Z,8.35
2017-11-27T12:16:22.454Z,8.39
2017-11-27T12:17:22.380Z,8.42
2017-11-27T12:18:22.277Z,8.42
2017-11-27T12:19:22.184Z,8.44
2017-11-27T12:20:22.098Z,8.55
2017-11-27T12:21:22.011Z,8.57
2017-11-27T12:22:21.917Z,8.50
2017-11-27T12:23:21.839Z,8.51
2017-11-27T12:24:21.743Z,8.58
2017-11-27T12:25:21.659Z,8.72
2017-11-27T12:26:21.573Z,8.79
2017-11-27T12:27:21.473Z,8.99
2017-11-27T12:28:21.387Z,8.83
2017-11-27T12:29:21.305Z,8.83
2017-11-27T12:30:21.208Z,8.81
2017-11-27T12:31:21.125Z,8.81
2017-11-27T12:32:21.030Z,8.71
2017-11-27T12:33:20.963Z,8.76
2017-11-27T12:34:20.860Z,8.55
2017-11-27T12:35:20.790Z,8.60
2017-11-27T12:36:20.676Z,8.69
2017-11-27T12:37:20.592Z,8.78
2017-11-27T12:38:20.501Z,8.75
2017-11-27T12:39:20.418Z,8.81
2017-11-27T12:40:20.342Z,8.78
2017-11-27T12:41:20.254Z,8.79
2017-11-27T12:42:20.145Z,8.83
2017-11-27T12:43:20.062Z,8.75
2017-11-27T12:44:19.972Z,8.81
2017-11-27T12:45:19.882Z,8.63
2017-11-27T12:46:19.785Z,8.75
2017-11-27T12:47:19.701Z,8.73
2017-11-27T12:48:19.624Z,8.66
2017-11-27T12:49:19.525Z,8.73
2017-11-27T12:50:19.435Z,8.81
2017-11-27T12:51:19.350Z,8.76
2017-11-27T12:52:19.263Z,8.63
2017-11-27T12:53:19.173Z,8.65
2017-11-27T12:54:19.081Z,8.60
2017-11-27T12:55:18.999Z,8.57
2017-11-27T12:56:18.926Z,8.63
2017-11-27T12:57:18.817Z,8.58
2017-11-27T12:58:18.729Z,8.50
2017-11-27T12:59:18.642Z,8.58
2017-11-27T13:00:18.556Z,8.60
2017-11-27T13:01:18.465Z,8.65
2017-11-27T13:02:18.369Z,8.48
2017-11-27T13:03:18.282Z,8.53
2017-11-27T13:04:18.202Z,8.58
2017-11-27T13:05:18.148Z,8.57
2017-11-27T13:06:18.017Z,8.65
2017-11-27T13:07:17.927Z,8.55
2017-11-27T13:08:17.841Z,8.32
2017-11-27T13:09:17.756Z,8.50
2017-11-27T13:10:18.502Z,8.50
2017-11-27T13:11:17.580Z,8.55
2017-11-27T13:12:17.491Z,8.65
2017-11-27T13:13:17.398Z,8.63
2017-11-27T13:14:17.314Z,8.51
2017-11-27T13:15:17.218Z,8.53
2017-11-27T13:16:17.131Z,8.54